sensor_id;sensor_type;location;lat;lon;timestamp;temperature;humidity
69731;SHT31;56996;48.138;11.538;2023-01-08T00:01:10;5.07;68.40
69731;SHT31;56996;48.138;11.538;2023-01-08T00:03:38;5.05;68.28
69731;SHT31;56996;48.138;11.538;2023-01-08T00:06:08;5.04;68.26
69731;SHT31;56996;48.138;11.538;2023-01-08T00:08:38;5.01;68.31
69731;SHT31;56996;48.138;11.538;2023-01-08T00:11:05;5.00;68.33
69731;SHT31;56996;48.138;11.538;2023-01-08T00:13:32;4.99;68.34
69731;SHT31;56996;48.138;11.538;2023-01-08T00:16:06;5.01;68.36
69731;SHT31;56996;48.138;11.538;2023-01-08T00:18:39;5.03;68.28
69731;SHT31;56996;48.138;11.538;2023-01-08T00:21:06;5.02;68.22
69731;SHT31;56996;48.138;11.538;2023-01-08T00:23:33;5.04;68.15
69731;SHT31;56996;48.138;11.538;2023-01-08T00:26:01;5.04;68.01
69731;SHT31;56996;48.138;11.538;2023-01-08T00:28:29;5.05;67.98
69731;SHT31;56996;48.138;11.538;2023-01-08T00:30:57;5.04;68.07
69731;SHT31;56996;48.138;11.538;2023-01-08T00:33:23;5.04;68.09
69731;SHT31;56996;48.138;11.538;2023-01-08T00:35:50;5.04;68.12
69731;SHT31;56996;48.138;11.538;2023-01-08T00:38:17;5.04;68.20
69731;SHT31;56996;48.138;11.538;2023-01-08T00:40:43;5.02;68.23
69731;SHT31;56996;48.138;11.538;2023-01-08T00:43:10;5.02;68.29
69731;SHT31;56996;48.138;11.538;2023-01-08T00:45:37;5.01;68.32
69731;SHT31;56996;48.138;11.538;2023-01-08T00:48:03;4.99;68.29
69731;SHT31;56996;48.138;11.538;2023-01-08T00:50:31;4.98;68.23
69731;SHT31;56996;48.138;11.538;2023-01-08T00:52:58;4.96;68.09
69731;SHT31;56996;48.138;11.538;2023-01-08T00:55:24;4.94;68.02
69731;SHT31;56996;48.138;11.538;2023-01-08T00:57:51;4.91;68.02
69731;SHT31;56996;48.138;11.538;2023-01-08T01:00:17;4.90;67.97
69731;SHT31;56996;48.138;11.538;2023-01-08T01:02:44;4.88;67.80
69731;SHT31;56996;48.138;11.538;2023-01-08T01:05:11;4.85;67.78
69731;SHT31;56996;48.138;11.538;2023-01-08T01:07:43;4.82;67.81
69731;SHT31;56996;48.138;11.538;2023-01-08T01:10:11;4.80;67.84
69731;SHT31;56996;48.138;11.538;2023-01-08T01:12:39;4.78;67.98
69731;SHT31;56996;48.138;11.538;2023-01-08T01:15:07;4.75;68.04
69731;SHT31;56996;48.138;11.538;2023-01-08T01:17:38;4.74;67.91
69731;SHT31;56996;48.138;11.538;2023-01-08T01:20:07;4.72;67.55
69731;SHT31;56996;48.138;11.538;2023-01-08T01:22:37;4.72;67.55
69731;SHT31;56996;48.138;11.538;2023-01-08T01:25:04;4.71;67.36
69731;SHT31;56996;48.138;11.538;2023-01-08T01:27:32;4.71;67.25
69731;SHT31;56996;48.138;11.538;2023-01-08T01:29:59;4.71;66.86
69731;SHT31;56996;48.138;11.538;2023-01-08T01:32:26;4.70;66.79
69731;SHT31;56996;48.138;11.538;2023-01-08T01:34:53;4.70;66.70
69731;SHT31;56996;48.138;11.538;2023-01-08T01:37:19;4.69;66.70
69731;SHT31;56996;48.138;11.538;2023-01-08T01:39:46;4.69;66.67
69731;SHT31;56996;48.138;11.538;2023-01-08T01:42:13;4.69;66.71
69731;SHT31;56996;48.138;11.538;2023-01-08T01:45:22;4.67;66.80
69731;SHT31;56996;48.138;11.538;2023-01-08T01:48:00;4.66;66.80
69731;SHT31;56996;48.138;11.538;2023-01-08T01:50:39;4.64;66.82
69731;SHT31;56996;48.138;11.538;2023-01-08T01:53:33;4.62;66.86
69731;SHT31;56996;48.138;11.538;2023-01-08T01:56:00;4.61;66.92
69731;SHT31;56996;48.138;11.538;2023-01-08T01:58:29;4.57;67.01
69731;SHT31;56996;48.138;11.538;2023-01-08T02:00:57;4.56;67.17
69731;SHT31;56996;48.138;11.538;2023-01-08T02:03:30;4.55;67.16
69731;SHT31;56996;48.138;11.538;2023-01-08T02:11:34;4.54;67.10
69731;SHT31;56996;48.138;11.538;2023-01-08T02:17:12;4.49;67.28
69731;SHT31;56996;48.138;11.538;2023-01-08T02:19:49;4.47;67.30
69731;SHT31;56996;48.138;11.538;2023-01-08T02:25:21;4.45;67.42
69731;SHT31;56996;48.138;11.538;2023-01-08T02:28:16;4.44;67.51
69731;SHT31;56996;48.138;11.538;2023-01-08T02:30:43;4.44;67.57
69731;SHT31;56996;48.138;11.538;2023-01-08T02:33:11;4.43;67.62
69731;SHT31;56996;48.138;11.538;2023-01-08T02:35:46;4.43;67.74
69731;SHT31;56996;48.138;11.538;2023-01-08T02:38:21;4.43;67.87
69731;SHT31;56996;48.138;11.538;2023-01-08T02:41:03;4.42;67.98
69731;SHT31;56996;48.138;11.538;2023-01-08T02:43:43;4.42;68.04
69731;SHT31;56996;48.138;11.538;2023-01-08T02:46:21;4.41;68.17
69731;SHT31;56996;48.138;11.538;2023-01-08T02:49:00;4.37;68.27
69731;SHT31;56996;48.138;11.538;2023-01-08T02:51:34;4.36;68.30
69731;SHT31;56996;48.138;11.538;2023-01-08T02:54:08;4.35;68.24
69731;SHT31;56996;48.138;11.538;2023-01-08T02:56:41;4.33;68.01
69731;SHT31;56996;48.138;11.538;2023-01-08T02:59:12;4.33;67.86
69731;SHT31;56996;48.138;11.538;2023-01-08T03:01:40;4.30;67.78
69731;SHT31;56996;48.138;11.538;2023-01-08T03:04:10;4.28;67.65
69731;SHT31;56996;48.138;11.538;2023-01-08T03:06:43;4.25;67.64
69731;SHT31;56996;48.138;11.538;2023-01-08T03:09:11;4.22;67.65
69731;SHT31;56996;48.138;11.538;2023-01-08T03:11:44;4.20;67.60
69731;SHT31;56996;48.138;11.538;2023-01-08T03:17:29;4.17;67.49
69731;SHT31;56996;48.138;11.538;2023-01-08T03:20:05;4.16;67.49
69731;SHT31;56996;48.138;11.538;2023-01-08T03:22:40;4.12;67.59
69731;SHT31;56996;48.138;11.538;2023-01-08T03:25:12;4.10;67.43
69731;SHT31;56996;48.138;11.538;2023-01-08T03:27:42;4.08;67.33
69731;SHT31;56996;48.138;11.538;2023-01-08T03:30:14;4.06;67.23
69731;SHT31;56996;48.138;11.538;2023-01-08T03:32:43;4.03;67.09
69731;SHT31;56996;48.138;11.538;2023-01-08T03:35:13;4.00;67.08
69731;SHT31;56996;48.138;11.538;2023-01-08T03:37:45;3.98;67.07
69731;SHT31;56996;48.138;11.538;2023-01-08T03:40:22;3.96;67.19
69731;SHT31;56996;48.138;11.538;2023-01-08T03:42:54;3.93;67.29
69731;SHT31;56996;48.138;11.538;2023-01-08T03:45:23;3.88;67.39
69731;SHT31;56996;48.138;11.538;2023-01-08T03:47:51;3.85;67.41
69731;SHT31;56996;48.138;11.538;2023-01-08T03:50:21;3.84;67.45
69731;SHT31;56996;48.138;11.538;2023-01-08T03:52:52;3.82;67.50
69731;SHT31;56996;48.138;11.538;2023-01-08T03:55:19;3.81;67.56
69731;SHT31;56996;48.138;11.538;2023-01-08T03:57:46;3.80;67.61
69731;SHT31;56996;48.138;11.538;2023-01-08T04:00:12;3.79;67.60
69731;SHT31;56996;48.138;11.538;2023-01-08T04:02:40;3.77;67.60
69731;SHT31;56996;48.138;11.538;2023-01-08T04:05:09;3.76;67.63
69731;SHT31;56996;48.138;11.538;2023-01-08T04:07:36;3.75;67.71
69731;SHT31;56996;48.138;11.538;2023-01-08T04:10:03;3.72;67.80
69731;SHT31;56996;48.138;11.538;2023-01-08T04:12:30;3.71;67.91
69731;SHT31;56996;48.138;11.538;2023-01-08T04:14:57;3.70;67.91
69731;SHT31;56996;48.138;11.538;2023-01-08T04:17:24;3.68;67.98
69731;SHT31;56996;48.138;11.538;2023-01-08T04:19:50;3.66;68.00
69731;SHT31;56996;48.138;11.538;2023-01-08T04:22:17;3.64;68.00
69731;SHT31;56996;48.138;11.538;2023-01-08T04:24:43;3.62;68.11
69731;SHT31;56996;48.138;11.538;2023-01-08T04:27:10;3.60;68.14
69731;SHT31;56996;48.138;11.538;2023-01-08T04:29:37;3.58;68.32
69731;SHT31;56996;48.138;11.538;2023-01-08T04:32:03;3.59;68.32
69731;SHT31;56996;48.138;11.538;2023-01-08T04:34:30;3.60;68.26
69731;SHT31;56996;48.138;11.538;2023-01-08T04:36:57;3.61;68.28
69731;SHT31;56996;48.138;11.538;2023-01-08T04:39:24;3.63;68.30
69731;SHT31;56996;48.138;11.538;2023-01-08T04:41:50;3.62;68.30
69731;SHT31;56996;48.138;11.538;2023-01-08T04:44:17;3.63;68.30
69731;SHT31;56996;48.138;11.538;2023-01-08T04:46:44;3.63;68.30
69731;SHT31;56996;48.138;11.538;2023-01-08T04:49:11;3.65;68.36
69731;SHT31;56996;48.138;11.538;2023-01-08T04:51:38;3.65;68.30
69731;SHT31;56996;48.138;11.538;2023-01-08T04:54:05;3.63;68.26
69731;SHT31;56996;48.138;11.538;2023-01-08T04:56:32;3.63;68.30
69731;SHT31;56996;48.138;11.538;2023-01-08T04:58:58;3.60;68.30
69731;SHT31;56996;48.138;11.538;2023-01-08T05:01:26;3.59;68.43
69731;SHT31;56996;48.138;11.538;2023-01-08T05:03:54;3.58;68.50
69731;SHT31;56996;48.138;11.538;2023-01-08T05:06:25;3.58;68.52
69731;SHT31;56996;48.138;11.538;2023-01-08T05:08:54;3.58;68.50
69731;SHT31;56996;48.138;11.538;2023-01-08T05:11:22;3.58;68.50
69731;SHT31;56996;48.138;11.538;2023-01-08T05:13:50;3.58;68.51
69731;SHT31;56996;48.138;11.538;2023-01-08T05:16:17;3.59;68.53
69731;SHT31;56996;48.138;11.538;2023-01-08T05:18:44;3.59;68.58
69731;SHT31;56996;48.138;11.538;2023-01-08T05:21:11;3.60;68.60
69731;SHT31;56996;48.138;11.538;2023-01-08T05:23:39;3.59;68.61
69731;SHT31;56996;48.138;11.538;2023-01-08T05:26:06;3.63;68.55
69731;SHT31;56996;48.138;11.538;2023-01-08T05:28:32;3.65;68.50
69731;SHT31;56996;48.138;11.538;2023-01-08T05:30:59;3.67;68.50
69731;SHT31;56996;48.138;11.538;2023-01-08T05:33:26;3.68;68.48
69731;SHT31;56996;48.138;11.538;2023-01-08T05:35:53;3.69;68.47
69731;SHT31;56996;48.138;11.538;2023-01-08T05:38:19;3.69;68.41
69731;SHT31;56996;48.138;11.538;2023-01-08T05:40:46;3.68;68.40
69731;SHT31;56996;48.138;11.538;2023-01-08T05:43:13;3.69;68.46
69731;SHT31;56996;48.138;11.538;2023-01-08T05:45:39;3.68;68.55
69731;SHT31;56996;48.138;11.538;2023-01-08T05:48:06;3.67;68.56
69731;SHT31;56996;48.138;11.538;2023-01-08T05:50:33;3.67;68.58
69731;SHT31;56996;48.138;11.538;2023-01-08T05:53:00;3.69;68.56
69731;SHT31;56996;48.138;11.538;2023-01-08T05:55:30;3.68;68.60
69731;SHT31;56996;48.138;11.538;2023-01-08T05:57:59;3.67;68.60
69731;SHT31;56996;48.138;11.538;2023-01-08T06:00:30;3.69;68.62
69731;SHT31;56996;48.138;11.538;2023-01-08T06:02:59;3.70;68.66
69731;SHT31;56996;48.138;11.538;2023-01-08T06:05:25;3.72;68.68
69731;SHT31;56996;48.138;11.538;2023-01-08T06:07:52;3.73;68.66
69731;SHT31;56996;48.138;11.538;2023-01-08T06:10:19;3.75;68.68
69731;SHT31;56996;48.138;11.538;2023-01-08T06:12:45;3.77;68.70
69731;SHT31;56996;48.138;11.538;2023-01-08T06:15:12;3.78;68.63
69731;SHT31;56996;48.138;11.538;2023-01-08T06:17:39;3.79;68.48
69731;SHT31;56996;48.138;11.538;2023-01-08T06:20:05;3.78;68.26
69731;SHT31;56996;48.138;11.538;2023-01-08T06:22:33;3.81;68.16
69731;SHT31;56996;48.138;11.538;2023-01-08T06:25:00;3.84;68.04
69731;SHT31;56996;48.138;11.538;2023-01-08T06:27:27;3.86;67.79
69731;SHT31;56996;48.138;11.538;2023-01-08T06:29:55;3.90;67.54
69731;SHT31;56996;48.138;11.538;2023-01-08T06:32:21;3.92;67.44
69731;SHT31;56996;48.138;11.538;2023-01-08T06:34:48;3.95;67.25
69731;SHT31;56996;48.138;11.538;2023-01-08T06:37:15;3.96;67.12
69731;SHT31;56996;48.138;11.538;2023-01-08T06:39:41;4.01;66.99
69731;SHT31;56996;48.138;11.538;2023-01-08T06:42:08;4.03;66.93
69731;SHT31;56996;48.138;11.538;2023-01-08T06:44:34;4.02;66.90
69731;SHT31;56996;48.138;11.538;2023-01-08T06:47:01;4.03;66.80
69731;SHT31;56996;48.138;11.538;2023-01-08T06:49:28;4.03;66.57
69731;SHT31;56996;48.138;11.538;2023-01-08T06:51:54;4.04;66.41
69731;SHT31;56996;48.138;11.538;2023-01-08T06:54:22;4.07;66.35
69731;SHT31;56996;48.138;11.538;2023-01-08T06:56:49;4.08;66.15
69731;SHT31;56996;48.138;11.538;2023-01-08T06:59:19;4.11;65.95
69731;SHT31;56996;48.138;11.538;2023-01-08T07:01:47;4.12;65.81
69731;SHT31;56996;48.138;11.538;2023-01-08T07:04:14;4.12;65.81
69731;SHT31;56996;48.138;11.538;2023-01-08T07:06:42;4.14;65.73
69731;SHT31;56996;48.138;11.538;2023-01-08T07:09:12;4.17;65.51
69731;SHT31;56996;48.138;11.538;2023-01-08T07:11:40;4.20;65.41
69731;SHT31;56996;48.138;11.538;2023-01-08T07:14:07;4.24;65.39
69731;SHT31;56996;48.138;11.538;2023-01-08T07:16:35;4.26;65.47
69731;SHT31;56996;48.138;11.538;2023-01-08T07:19:02;4.29;65.32
69731;SHT31;56996;48.138;11.538;2023-01-08T07:21:29;4.32;65.32
69731;SHT31;56996;48.138;11.538;2023-01-08T07:23:56;4.37;65.36
69731;SHT31;56996;48.138;11.538;2023-01-08T07:26:24;4.40;65.40
69731;SHT31;56996;48.138;11.538;2023-01-08T07:28:51;4.43;65.40
69731;SHT31;56996;48.138;11.538;2023-01-08T07:31:18;4.45;65.41
69731;SHT31;56996;48.138;11.538;2023-01-08T07:33:44;4.49;65.37
69731;SHT31;56996;48.138;11.538;2023-01-08T07:36:11;4.53;65.18
69731;SHT31;56996;48.138;11.538;2023-01-08T07:38:38;4.58;65.03
69731;SHT31;56996;48.138;11.538;2023-01-08T07:41:04;4.62;65.00
69731;SHT31;56996;48.138;11.538;2023-01-08T07:43:31;4.66;64.92
69731;SHT31;56996;48.138;11.538;2023-01-08T07:46:00;4.70;64.91
69731;SHT31;56996;48.138;11.538;2023-01-08T07:48:29;4.74;64.89
69731;SHT31;56996;48.138;11.538;2023-01-08T07:50:59;4.75;64.81
69731;SHT31;56996;48.138;11.538;2023-01-08T07:53:31;4.77;64.84
69731;SHT31;56996;48.138;11.538;2023-01-08T07:56:06;4.78;64.74
69731;SHT31;56996;48.138;11.538;2023-01-08T07:58:34;4.80;64.69
69731;SHT31;56996;48.138;11.538;2023-01-08T08:01:01;4.80;64.48
69731;SHT31;56996;48.138;11.538;2023-01-08T08:03:29;4.84;64.31
69731;SHT31;56996;48.138;11.538;2023-01-08T08:05:58;4.86;64.25
69731;SHT31;56996;48.138;11.538;2023-01-08T08:08:26;4.90;64.03
69731;SHT31;56996;48.138;11.538;2023-01-08T08:10:52;4.93;63.90
69731;SHT31;56996;48.138;11.538;2023-01-08T08:13:19;4.96;63.85
69731;SHT31;56996;48.138;11.538;2023-01-08T08:15:46;5.02;63.67
69731;SHT31;56996;48.138;11.538;2023-01-08T08:18:12;5.08;63.60
69731;SHT31;56996;48.138;11.538;2023-01-08T08:20:39;5.15;63.49
69731;SHT31;56996;48.138;11.538;2023-01-08T08:23:07;5.20;63.56
69731;SHT31;56996;48.138;11.538;2023-01-08T08:25:39;5.26;63.49
69731;SHT31;56996;48.138;11.538;2023-01-08T08:28:08;5.33;63.27
69731;SHT31;56996;48.138;11.538;2023-01-08T08:30:36;5.39;63.10
69731;SHT31;56996;48.138;11.538;2023-01-08T08:33:07;5.48;62.90
69731;SHT31;56996;48.138;11.538;2023-01-08T08:35:35;5.57;62.75
69731;SHT31;56996;48.138;11.538;2023-01-08T08:38:02;5.68;62.68
69731;SHT31;56996;48.138;11.538;2023-01-08T08:40:30;5.78;62.40
69731;SHT31;56996;48.138;11.538;2023-01-08T08:42:57;5.88;62.18
69731;SHT31;56996;48.138;11.538;2023-01-08T08:45:26;5.98;61.81
69731;SHT31;56996;48.138;11.538;2023-01-08T08:47:54;6.06;61.56
69731;SHT31;56996;48.138;11.538;2023-01-08T08:50:21;6.16;61.23
69731;SHT31;56996;48.138;11.538;2023-01-08T08:52:47;6.23;61.06
69731;SHT31;56996;48.138;11.538;2023-01-08T08:55:14;6.32;60.71
69731;SHT31;56996;48.138;11.538;2023-01-08T08:57:43;6.42;60.40
69731;SHT31;56996;48.138;11.538;2023-01-08T09:00:12;6.49;60.05
69731;SHT31;56996;48.138;11.538;2023-01-08T09:02:40;6.58;59.84
69731;SHT31;56996;48.138;11.538;2023-01-08T09:05:07;6.66;59.40
69731;SHT31;56996;48.138;11.538;2023-01-08T09:07:34;6.71;59.06
69731;SHT31;56996;48.138;11.538;2023-01-08T09:10:01;6.77;58.97
69731;SHT31;56996;48.138;11.538;2023-01-08T09:12:29;6.82;58.82
69731;SHT31;56996;48.138;11.538;2023-01-08T09:14:56;6.88;58.76
69731;SHT31;56996;48.138;11.538;2023-01-08T09:17:23;6.95;58.65
69731;SHT31;56996;48.138;11.538;2023-01-08T09:19:51;7.03;58.54
69731;SHT31;56996;48.138;11.538;2023-01-08T09:22:18;7.13;58.37
69731;SHT31;56996;48.138;11.538;2023-01-08T09:24:45;7.20;58.21
69731;SHT31;56996;48.138;11.538;2023-01-08T09:27:12;7.27;58.11
69731;SHT31;56996;48.138;11.538;2023-01-08T09:29:39;7.33;58.01
69731;SHT31;56996;48.138;11.538;2023-01-08T09:32:06;7.37;57.89
69731;SHT31;56996;48.138;11.538;2023-01-08T09:34:34;7.43;57.64
69731;SHT31;56996;48.138;11.538;2023-01-08T09:37:02;7.45;57.48
69731;SHT31;56996;48.138;11.538;2023-01-08T09:39:29;7.51;57.37
69731;SHT31;56996;48.138;11.538;2023-01-08T09:41:57;7.57;57.10
69731;SHT31;56996;48.138;11.538;2023-01-08T09:44:27;7.65;56.91
69731;SHT31;56996;48.138;11.538;2023-01-08T09:47:01;7.78;56.66
69731;SHT31;56996;48.138;11.538;2023-01-08T09:49:46;7.94;56.22
69731;SHT31;56996;48.138;11.538;2023-01-08T09:52:15;8.10;55.75
69731;SHT31;56996;48.138;11.538;2023-01-08T09:54:42;8.25;55.53
69731;SHT31;56996;48.138;11.538;2023-01-08T09:57:11;8.37;55.24
69731;SHT31;56996;48.138;11.538;2023-01-08T09:59:44;8.49;55.12
69731;SHT31;56996;48.138;11.538;2023-01-08T10:02:17;8.76;54.60
69731;SHT31;56996;48.138;11.538;2023-01-08T10:04:49;9.19;53.86
69731;SHT31;56996;48.138;11.538;2023-01-08T10:07:23;9.72;52.94
69731;SHT31;56996;48.138;11.538;2023-01-08T10:09:53;10.14;52.20
69731;SHT31;56996;48.138;11.538;2023-01-08T10:12:23;10.61;51.62
69731;SHT31;56996;48.138;11.538;2023-01-08T10:15:03;11.07;50.78
69731;SHT31;56996;48.138;11.538;2023-01-08T10:17:37;11.46;49.94
69731;SHT31;56996;48.138;11.538;2023-01-08T10:20:14;11.80;49.50
69731;SHT31;56996;48.138;11.538;2023-01-08T10:22:47;12.14;48.69
69731;SHT31;56996;48.138;11.538;2023-01-08T10:25:17;12.25;48.27
69731;SHT31;56996;48.138;11.538;2023-01-08T10:27:48;12.36;47.84
69731;SHT31;56996;48.138;11.538;2023-01-08T10:30:18;12.43;47.29
69731;SHT31;56996;48.138;11.538;2023-01-08T10:32:56;12.48;47.09
69731;SHT31;56996;48.138;11.538;2023-01-08T10:35:32;12.75;46.45
69731;SHT31;56996;48.138;11.538;2023-01-08T10:38:02;12.95;45.74
69731;SHT31;56996;48.138;11.538;2023-01-08T10:43:08;13.06;45.42
69731;SHT31;56996;48.138;11.538;2023-01-08T10:45:41;13.05;45.09
69731;SHT31;56996;48.138;11.538;2023-01-08T10:48:14;12.98;44.76
69731;SHT31;56996;48.138;11.538;2023-01-08T10:50:43;12.80;44.64
69731;SHT31;56996;48.138;11.538;2023-01-08T10:53:23;12.57;44.58
69731;SHT31;56996;48.138;11.538;2023-01-08T10:55:58;12.36;44.91
69731;SHT31;56996;48.138;11.538;2023-01-08T10:58:27;12.19;45.10
69731;SHT31;56996;48.138;11.538;2023-01-08T11:01:07;11.93;45.42
69731;SHT31;56996;48.138;11.538;2023-01-08T11:03:41;11.65;45.67
69731;SHT31;56996;48.138;11.538;2023-01-08T11:06:09;11.42;45.99
69731;SHT31;56996;48.138;11.538;2023-01-08T11:08:48;11.22;46.17
69731;SHT31;56996;48.138;11.538;2023-01-08T11:11:32;11.01;46.38
69731;SHT31;56996;48.138;11.538;2023-01-08T11:14:02;10.86;46.61
69731;SHT31;56996;48.138;11.538;2023-01-08T11:16:38;10.76;46.96
69731;SHT31;56996;48.138;11.538;2023-01-08T11:19:21;10.66;47.08
69731;SHT31;56996;48.138;11.538;2023-01-08T11:22:01;10.55;47.40
69731;SHT31;56996;48.138;11.538;2023-01-08T11:29:37;10.38;48.17
69731;SHT31;56996;48.138;11.538;2023-01-08T11:34:53;10.32;48.56
69731;SHT31;56996;48.138;11.538;2023-01-08T11:37:32;10.33;48.31
69731;SHT31;56996;48.138;11.538;2023-01-08T11:40:02;10.34;48.44
69731;SHT31;56996;48.138;11.538;2023-01-08T11:42:55;10.35;48.55
69731;SHT31;56996;48.138;11.538;2023-01-08T11:45:33;10.41;48.56
69731;SHT31;56996;48.138;11.538;2023-01-08T11:48:34;10.45;48.27
69731;SHT31;56996;48.138;11.538;2023-01-08T11:54:51;10.44;48.04
69731;SHT31;56996;48.138;11.538;2023-01-08T11:57:45;10.45;47.84
69731;SHT31;56996;48.138;11.538;2023-01-08T12:06:57;10.53;47.84
69731;SHT31;56996;48.138;11.538;2023-01-08T12:18:24;10.46;47.83
69731;SHT31;56996;48.138;11.538;2023-01-08T12:27:16;10.36;48.26
69731;SHT31;56996;48.138;11.538;2023-01-08T12:33:36;10.36;48.41
69731;SHT31;56996;48.138;11.538;2023-01-08T12:36:13;10.35;48.68
69731;SHT31;56996;48.138;11.538;2023-01-08T12:38:51;10.37;48.83
69731;SHT31;56996;48.138;11.538;2023-01-08T12:41:23;10.39;48.75
69731;SHT31;56996;48.138;11.538;2023-01-08T12:43:58;10.40;48.81
69731;SHT31;56996;48.138;11.538;2023-01-08T12:46:32;10.40;48.89
69731;SHT31;56996;48.138;11.538;2023-01-08T12:49:05;10.39;49.04
69731;SHT31;56996;48.138;11.538;2023-01-08T12:54:07;10.36;49.34
69731;SHT31;56996;48.138;11.538;2023-01-08T12:56:49;10.32;49.44
69731;SHT31;56996;48.138;11.538;2023-01-08T13:07:45;10.14;49.67
69731;SHT31;56996;48.138;11.538;2023-01-08T13:10:53;10.12;49.75
69731;SHT31;56996;48.138;11.538;2023-01-08T13:13:34;10.11;49.82
69731;SHT31;56996;48.138;11.538;2023-01-08T13:16:06;10.12;50.00
69731;SHT31;56996;48.138;11.538;2023-01-08T13:18:54;10.11;50.18
69731;SHT31;56996;48.138;11.538;2023-01-08T13:21:28;10.10;50.15
69731;SHT31;56996;48.138;11.538;2023-01-08T13:29:46;9.94;50.57
69731;SHT31;56996;48.138;11.538;2023-01-08T13:32:22;9.95;50.68
69731;SHT31;56996;48.138;11.538;2023-01-08T13:37:42;9.98;50.67
69731;SHT31;56996;48.138;11.538;2023-01-08T13:43:16;9.96;50.92
69731;SHT31;56996;48.138;11.538;2023-01-08T13:48:26;10.02;50.69
69731;SHT31;56996;48.138;11.538;2023-01-08T13:50:56;10.03;50.73
69731;SHT31;56996;48.138;11.538;2023-01-08T13:53:23;10.06;50.84
69731;SHT31;56996;48.138;11.538;2023-01-08T13:55:54;10.09;50.81
69731;SHT31;56996;48.138;11.538;2023-01-08T13:58:30;10.07;50.77
69731;SHT31;56996;48.138;11.538;2023-01-08T14:01:02;10.07;50.72
69731;SHT31;56996;48.138;11.538;2023-01-08T14:03:32;10.05;50.68
69731;SHT31;56996;48.138;11.538;2023-01-08T14:06:04;10.05;50.85
69731;SHT31;56996;48.138;11.538;2023-01-08T14:08:53;10.07;50.89
69731;SHT31;56996;48.138;11.538;2023-01-08T14:11:41;10.09;50.84
69731;SHT31;56996;48.138;11.538;2023-01-08T14:14:13;10.09;50.95
69731;SHT31;56996;48.138;11.538;2023-01-08T14:16:43;10.08;50.93
69731;SHT31;56996;48.138;11.538;2023-01-08T14:19:14;10.11;50.98
69731;SHT31;56996;48.138;11.538;2023-01-08T14:21:51;10.13;51.07
69731;SHT31;56996;48.138;11.538;2023-01-08T14:24:22;10.17;51.04
69731;SHT31;56996;48.138;11.538;2023-01-08T14:26:54;10.19;50.98
69731;SHT31;56996;48.138;11.538;2023-01-08T14:29:25;10.21;50.90
69731;SHT31;56996;48.138;11.538;2023-01-08T14:31:56;10.23;50.87
69731;SHT31;56996;48.138;11.538;2023-01-08T14:34:25;10.24;50.88
69731;SHT31;56996;48.138;11.538;2023-01-08T14:36:56;10.26;50.92
69731;SHT31;56996;48.138;11.538;2023-01-08T14:41:58;10.29;50.86
69731;SHT31;56996;48.138;11.538;2023-01-08T14:47:58;10.19;50.95
69731;SHT31;56996;48.138;11.538;2023-01-08T14:51:12;10.20;51.08
69731;SHT31;56996;48.138;11.538;2023-01-08T14:53:43;10.18;50.83
69731;SHT31;56996;48.138;11.538;2023-01-08T14:56:15;10.14;50.79
69731;SHT31;56996;48.138;11.538;2023-01-08T14:58:49;10.11;50.91
69731;SHT31;56996;48.138;11.538;2023-01-08T15:03:44;10.12;51.06
69731;SHT31;56996;48.138;11.538;2023-01-08T15:06:27;10.11;51.29
69731;SHT31;56996;48.138;11.538;2023-01-08T15:08:56;10.15;51.23
69731;SHT31;56996;48.138;11.538;2023-01-08T15:11:26;10.15;51.27
69731;SHT31;56996;48.138;11.538;2023-01-08T15:13:56;10.16;51.36
69731;SHT31;56996;48.138;11.538;2023-01-08T15:21:32;10.03;51.35
69731;SHT31;56996;48.138;11.538;2023-01-08T15:24:00;10.02;51.59
69731;SHT31;56996;48.138;11.538;2023-01-08T15:26:29;10.03;51.70
69731;SHT31;56996;48.138;11.538;2023-01-08T15:29:00;10.00;51.72
69731;SHT31;56996;48.138;11.538;2023-01-08T15:31:31;9.93;51.83
69731;SHT31;56996;48.138;11.538;2023-01-08T15:34:12;9.86;51.98
69731;SHT31;56996;48.138;11.538;2023-01-08T15:36:39;9.81;52.08
69731;SHT31;56996;48.138;11.538;2023-01-08T15:39:06;9.77;52.24
69731;SHT31;56996;48.138;11.538;2023-01-08T15:41:33;9.76;52.28
69731;SHT31;56996;48.138;11.538;2023-01-08T15:44:21;9.73;52.37
69731;SHT31;56996;48.138;11.538;2023-01-08T15:46:52;9.73;52.38
69731;SHT31;56996;48.138;11.538;2023-01-08T15:49:19;9.73;52.33
69731;SHT31;56996;48.138;11.538;2023-01-08T15:51:46;9.72;52.53
69731;SHT31;56996;48.138;11.538;2023-01-08T15:54:15;9.68;52.39
69731;SHT31;56996;48.138;11.538;2023-01-08T15:56:42;9.65;52.46
69731;SHT31;56996;48.138;11.538;2023-01-08T15:59:09;9.60;52.62
69731;SHT31;56996;48.138;11.538;2023-01-08T16:01:37;9.57;52.68
69731;SHT31;56996;48.138;11.538;2023-01-08T16:04:04;9.53;52.64
69731;SHT31;56996;48.138;11.538;2023-01-08T16:06:31;9.50;52.71
69731;SHT31;56996;48.138;11.538;2023-01-08T16:08:57;9.47;52.77
69731;SHT31;56996;48.138;11.538;2023-01-08T16:11:25;9.42;52.87
69731;SHT31;56996;48.138;11.538;2023-01-08T16:13:53;9.38;52.95
69731;SHT31;56996;48.138;11.538;2023-01-08T16:16:20;9.34;53.21
69731;SHT31;56996;48.138;11.538;2023-01-08T16:18:47;9.30;53.31
69731;SHT31;56996;48.138;11.538;2023-01-08T16:21:14;9.26;53.48
69731;SHT31;56996;48.138;11.538;2023-01-08T16:23:41;9.22;53.70
69731;SHT31;56996;48.138;11.538;2023-01-08T16:26:08;9.19;53.93
69731;SHT31;56996;48.138;11.538;2023-01-08T16:28:39;9.18;54.07
69731;SHT31;56996;48.138;11.538;2023-01-08T16:31:06;9.15;54.26
69731;SHT31;56996;48.138;11.538;2023-01-08T16:33:34;9.11;54.44
69731;SHT31;56996;48.138;11.538;2023-01-08T16:36:02;9.09;54.57
69731;SHT31;56996;48.138;11.538;2023-01-08T16:38:31;9.08;54.52
69731;SHT31;56996;48.138;11.538;2023-01-08T16:40:59;9.09;54.42
69731;SHT31;56996;48.138;11.538;2023-01-08T16:43:27;9.04;54.50
69731;SHT31;56996;48.138;11.538;2023-01-08T16:45:55;9.00;54.62
69731;SHT31;56996;48.138;11.538;2023-01-08T16:48:28;8.94;54.80
69731;SHT31;56996;48.138;11.538;2023-01-08T16:50:57;8.89;55.08
69731;SHT31;56996;48.138;11.538;2023-01-08T16:53:30;8.84;55.32
69731;SHT31;56996;48.138;11.538;2023-01-08T16:55:58;8.78;55.55
69731;SHT31;56996;48.138;11.538;2023-01-08T16:58:25;8.74;55.80
69731;SHT31;56996;48.138;11.538;2023-01-08T17:00:52;8.71;55.84
69731;SHT31;56996;48.138;11.538;2023-01-08T17:03:18;8.65;55.89
69731;SHT31;56996;48.138;11.538;2023-01-08T17:05:46;8.59;56.09
69731;SHT31;56996;48.138;11.538;2023-01-08T17:08:14;8.52;56.28
69731;SHT31;56996;48.138;11.538;2023-01-08T17:10:42;8.45;56.69
69731;SHT31;56996;48.138;11.538;2023-01-08T17:13:09;8.38;56.76
69731;SHT31;56996;48.138;11.538;2023-01-08T17:15:36;8.33;56.59
69731;SHT31;56996;48.138;11.538;2023-01-08T17:18:04;8.27;56.61
69731;SHT31;56996;48.138;11.538;2023-01-08T17:20:31;8.23;56.76